Latest Weather Observations for Wulungurru (Kintore)

IDD60801

Issued at 10:01 pm CST Saturday 29 August 2015 (issued every 30 minutes, with the page automatically refreshed every 10 minutes)

About weather observations | Map of weather stations | Latest weather observations for NT | Other Formats
Station Details ID: 015664 Name: WALUNGURRU AIRPORT Lat: -23.27 Lon: 129.38 Height: 454.3 m
Data from the previous 72 hours. | See also: Recent months at Wulungurru (Kintore)
Date/Time
CST
Temp
°C
App
Temp
°C
Dew
Point
Rel
Hum
%
Delta-T
°C
Wind Press
QNH
hPa
Press
MSL
hPa
Rain
since 9 am
mm
Dir
 
Spd
km/h
Gust
km/h
Spd
kts
Gust
kts
29/10:00pm 20.1 16.4 4.6 36 7.7 ENE 13 15 7 8 1020.1 - 0.0
29/09:30pm 20.9 17.2 4.5 34 8.1 ENE 13 15 7 8 1020.0 - 0.0
29/09:00pm 21.1 17.4 4.2 33 8.4 ENE 13 15 7 8 1019.8 1019.1 0.0
29/08:30pm 21.3 17.6 4.4 33 8.4 ENE 13 15 7 8 1019.6 - 0.0
29/08:00pm 21.7 17.9 3.9 31 8.8 E 13 15 7 8 1019.2 - 0.0
29/07:30pm 22.3 18.4 3.4 29 9.3 E 13 15 7 8 1018.9 - 0.0
29/07:00pm 24.2 20.7 3.5 26 10.3 ENE 11 13 6 7 1018.5 - 0.0
29/06:30pm 25.9 22.8 3.8 24 11.2 NE 9 13 5 7 1018.1 - 0.0
29/06:00pm 26.7 22.9 3.9 23 11.6 NNE 13 22 7 12 1017.8 1017.1 0.0
29/05:30pm 26.9 23.6 2.7 21 12.1 NE 9 13 5 7 1017.6 - 0.0
29/05:00pm 27.5 23.9 3.2 21 12.3 N 11 17 6 9 1017.5 - 0.0
29/04:30pm 27.3 23.5 3.7 22 12.1 ENE 13 22 7 12 1017.6 - 0.0
29/04:00pm 27.6 25.1 4.6 23 12.0 N 7 24 4 13 1017.7 - 0.0
29/03:30pm 28.2 24.9 6.3 25 11.8 N 13 22 7 12 1017.9 - 0.0
29/03:00pm 27.8 23.5 5.4 24 11.8 ENE 17 24 9 13 1018.4 1017.8 0.0
29/02:30pm 26.4 22.2 5.9 27 10.8 NNE 17 24 9 13 1018.9 - 0.0
29/02:00pm 26.3 22.2 7.8 31 10.1 NNE 19 28 10 15 1019.2 - 0.0
29/01:30pm 25.9 22.2 8.0 32 9.8 NNE 17 28 9 15 1020.1 - 0.0
29/01:00pm 26.0 22.8 8.5 33 9.7 NNE 15 22 8 12 1020.6 - 0.0
29/12:30pm 24.8 21.7 8.7 36 8.9 NNE 15 22 8 12 1021.3 - 0.0
29/12:00pm 24.0 20.4 8.4 37 8.5 NE 17 24 9 13 1021.8 1021.1 0.0
29/11:30am 23.6 20.0 8.5 38 8.2 NE 17 22 9 12 1022.2 - 0.0
29/11:00am 22.9 20.0 9.7 43 7.3 NNE 15 20 8 11 1022.5 - 0.0
29/10:30am 21.2 17.8 9.1 46 6.6 NE 17 22 9 12 1022.8 - 0.0
29/10:00am 20.1 16.5 9.7 51 5.7 NE 19 24 10 13 1022.7 - 0.0
29/09:30am 18.7 15.1 10.0 57 4.7 NE 19 22 10 12 1022.5 - 0.0
29/09:00am 16.9 13.1 9.8 63 3.8 ENE 20 26 11 14 1022.1 1021.5 0.0
29/08:30am 15.5 11.2 9.4 67 3.2 ENE 22 28 12 15 1021.7 - 0.0
29/08:00am 14.7 10.7 9.1 69 2.9 ENE 20 28 11 15 1021.6 - 0.0
29/07:30am 13.4 9.6 9.1 75 2.2 ENE 19 24 10 13 1021.3 - 0.0
29/07:00am 13.0 9.3 9.3 78 1.9 ENE 19 24 10 13 1021.0 - 0.0
29/06:30am 13.2 9.3 9.5 78 1.9 ENE 20 26 11 14 1020.6 - 0.0
29/06:00am 13.2 9.3 9.6 79 1.9 ENE 20 28 11 15 1020.4 1019.8 0.0
29/05:30am 13.3 9.5 9.9 80 1.8 ENE 20 26 11 14 1020.3 - 0.0
29/05:00am 13.3 9.8 10.1 81 1.7 ENE 19 26 10 14 1020.3 - 0.0
29/04:30am 13.6 10.2 10.4 81 1.7 ENE 19 24 10 13 1020.3 - 0.0
29/04:00am 13.6 10.6 10.8 83 1.5 ENE 17 24 9 13 1020.5 - 0.0
29/03:30am 13.9 10.7 11.1 83 1.5 ENE 19 24 10 13 1020.5 - 0.0
29/03:00am 14.1 10.9 11.3 83 1.5 ENE 19 26 10 14 1020.5 1019.9 0.0
29/02:30am 14.4 10.7 11.6 83 1.5 ENE 22 30 12 16 1020.6 - 0.0
29/02:00am 14.7 11.5 12.0 84 1.5 ENE 20 26 11 14 1020.8 - 0.0
29/01:30am 15.0 12.0 12.5 85 1.4 ENE 20 26 11 14 1021.3 - 0.0
29/01:00am 15.6 12.7 12.9 84 1.5 ENE 20 24 11 13 1021.3 - 0.0
29/12:30am 16.3 14.5 13.2 82 1.8 NE 15 20 8 11 1021.4 - 0.0
29/12:00am 16.3 15.2 13.2 82 1.8 NE 11 17 6 9 1021.4 1020.7 0.0
 
Date/Time
CST
Temp
°C
App
Temp
°C
Dew
Point
Rel
Hum
%
Delta-T
°C
Wind Press
QNH
hPa
Press
MSL
hPa
Rain
since 9 am
mm
Dir
 
Spd
km/h
Gust
km/h
Spd
kts
Gust
kts
28/11:30pm 16.9 14.7 13.2 79 2.1 ENE 17 20 9 11 1021.4 - 0.0
28/11:00pm 17.0 15.9 13.1 78 2.2 ENE 11 13 6 7 1021.7 - 0.0
28/10:30pm 17.6 16.4 12.9 74 2.7 ENE 11 15 6 8 1021.4 - 0.0
28/10:00pm 17.9 16.3 12.8 72 2.9 NE 13 17 7 9 1020.9 - 0.0
28/09:30pm 17.9 16.7 12.8 72 2.9 NE 11 15 6 8 1021.2 - 0.0
28/09:00pm 17.2 16.5 12.1 72 2.9 ENE 7 9 4 5 1021.2 1020.5 0.0
28/08:30pm 18.2 17.6 12.4 69 3.3 ENE 7 9 4 5 1020.7 - 0.0
28/08:00pm 19.0 17.8 12.7 67 3.6 NNE 11 15 6 8 1020.3 - 0.0
28/07:30pm 19.5 18.0 13.0 66 3.8 NNE 13 17 7 9 1019.7 - 0.0
28/07:00pm 20.2 17.8 12.7 62 4.3 NNE 17 22 9 12 1019.3 - 0.0
28/06:30pm 20.9 18.5 12.8 60 4.7 NNE 17 22 9 12 1019.0 - 0.0
28/06:00pm 21.4 18.0 12.5 57 5.1 NNE 22 28 12 15 1018.9 1018.2 0.0
28/05:30pm 22.4 19.3 12.1 52 5.9 NE 20 26 11 14 1018.6 - 0.0
28/05:00pm 22.7 19.1 12.0 50 6.2 NNE 22 28 12 15 1018.3 - 0.0
28/04:30pm 23.4 18.6 11.8 48 6.7 NNE 28 35 15 19 1018.0 - 0.0
28/04:00pm 23.4 19.2 12.4 50 6.4 NNE 26 35 14 19 1018.1 - 0.0
28/03:30pm 23.5 19.4 12.8 51 6.3 NNE 26 33 14 18 1018.4 - 0.0
28/03:00pm 23.5 19.4 12.8 51 6.3 NNE 26 33 14 18 1018.4 1017.8 0.0
28/02:30pm 23.6 20.3 12.9 51 6.3 N 22 30 12 16 1019.0 - 0.0
28/02:00pm 23.5 20.7 13.1 52 6.1 NNE 20 26 11 14 1019.3 - 0.0
28/01:30pm 23.5 20.2 12.8 51 6.3 NNE 22 30 12 16 1019.9 - 0.0
28/01:00pm 23.2 20.4 13.1 53 5.9 N 20 32 11 17 1020.2 - 0.0
28/12:30pm 23.1 19.8 12.7 52 6.1 NNE 22 32 12 17 1020.4 - 0.0
28/12:00pm 23.2 20.8 12.8 52 6.1 NNE 17 26 9 14 1021.0 1020.4 0.0
28/11:30am 22.3 19.7 13.1 56 5.4 NE 19 28 10 15 1021.5 - 0.0
28/11:00am 21.8 20.3 14.2 62 4.5 NNE 15 24 8 13 1021.9 - 0.0
28/10:30am 21.0 19.1 15.1 69 3.6 N 19 26 10 14 1021.7 - 0.0
28/10:00am 18.9 15.2 14.0 73 2.9 NNE 26 32 14 17 1021.4 - 0.0
28/09:30am 17.7 14.9 14.2 80 2.0 NE 22 32 12 17 1020.9 - 0.0
28/09:00am 15.9 13.0 13.9 88 1.2 NE 22 30 12 16 1020.7 1020.1 0.8
28/08:30am 15.1 12.4 13.6 91 0.9 NE 20 30 11 16 1020.9 - 0.8
28/08:00am 14.9 12.2 13.6 92 0.7 NNE 20 24 11 13 1021.3 - 0.8
28/07:30am 14.7 12.2 13.6 93 0.6 NE 19 24 10 13 1020.8 - 0.8
28/07:00am 14.6 12.8 13.3 92 0.7 NE 15 20 8 11 1021.0 - 0.8
28/06:30am 14.5 12.3 13.4 93 0.6 NE 17 24 9 13 1020.7 - 0.8
28/06:00am 14.9 12.2 13.4 91 0.9 ENE 20 26 11 14 1019.7 1019.0 0.8
28/05:30am 15.4 13.0 13.8 90 0.9 NE 19 24 10 13 1019.8 - 0.8
28/05:00am 15.5 13.1 13.7 89 1.0 ENE 19 24 10 13 1020.2 - 0.8
28/04:30am 15.6 13.4 13.4 87 1.3 E 17 22 9 12 1019.9 - 0.8
28/04:00am 15.9 14.2 13.7 87 1.3 E 15 28 8 15 1019.4 - 0.8
28/03:30am 16.1 15.5 13.4 84 1.5 ENE 9 15 5 8 1020.6 - 0.8
28/03:00am 17.0 13.9 12.1 73 2.7 ENE 20 30 11 16 1020.5 1019.9 0.0
28/02:30am 16.2 12.6 12.0 76 2.3 ENE 22 32 12 17 1019.5 - 0.0
28/02:00am 16.7 14.1 12.0 74 2.6 ENE 17 24 9 13 1019.9 - 0.0
28/01:30am 16.6 14.3 11.7 73 2.7 ENE 15 22 8 12 1020.2 - 0.0
28/01:00am 17.2 13.5 11.5 69 3.2 ENE 22 30 12 16 1019.7 - 0.0
28/12:30am 17.3 14.0 11.6 69 3.2 ENE 20 30 11 16 1020.3 - 0.0
28/12:00am 18.6 15.0 9.7 56 4.8 SE 19 22 10 12 1020.4 1019.8 0.0
 
Date/Time
CST
Temp
°C
App
Temp
°C
Dew
Point
Rel
Hum
%
Delta-T
°C
Wind Press
QNH
hPa
Press
MSL
hPa
Rain
since 9 am
mm
Dir
 
Spd
km/h
Gust
km/h
Spd
kts
Gust
kts
27/11:30pm 19.0 15.6 9.2 53 5.3 SSE 17 22 9 12 1020.0 - 0.0
27/11:00pm 19.9 15.3 9.8 52 5.5 SSE 24 37 13 20 1020.0 - 0.0
27/10:52pm 20.3 15.0 9.8 51 5.7 S 28 39 15 21 1020.1 - 0.0
27/10:30pm 19.9 17.3 9.2 50 5.8 SSE 13 19 7 10 1020.2 - 0.0
27/10:00pm 20.0 16.3 9.6 51 5.7 S 19 24 10 13 1020.0 - 0.0
27/09:30pm 19.9 17.7 9.5 51 5.7 S 11 15 6 8 1019.7 - 0.0
27/09:00pm 20.3 17.7 9.5 50 5.9 SSE 13 17 7 9 1019.4 1018.7 0.0
27/08:30pm 21.5 17.7 9.1 45 6.7 S 19 22 10 12 1019.0 - 0.0
27/08:00pm 22.6 20.2 8.7 41 7.6 SE 11 15 6 8 1018.4 - 0.0
27/07:30pm 22.8 20.8 8.5 40 7.8 SE 9 11 5 6 1018.4 - 0.0
27/07:00pm 23.2 21.3 7.7 37 8.3 E 7 9 4 5 1018.3 - 0.0
27/06:30pm 24.5 22.7 8.0 35 9.0 ENE 7 9 4 5 1017.9 - 0.0
27/06:00pm 25.2 22.7 8.2 34 9.3 E 11 19 6 10 1017.4 1016.7 0.0
27/05:30pm 25.3 22.9 8.7 35 9.2 NNE 11 17 6 9 1017.6 - 0.0
27/05:00pm 25.6 23.2 8.6 34 9.4 NE 11 15 6 8 1017.3 - 0.0
27/04:30pm 26.2 23.7 8.2 32 9.9 N 11 19 6 10 1017.3 - 0.0
27/04:00pm 26.0 23.1 8.0 32 9.8 ENE 13 22 7 12 1017.4 - 0.0
27/03:30pm 25.9 23.2 8.8 34 9.5 ENE 13 24 7 13 1017.6 - 0.0
27/03:00pm 25.8 22.8 9.2 35 9.2 E 15 24 8 13 1017.9 1017.2 0.0
27/02:30pm 26.0 23.1 9.8 36 9.1 E 15 24 8 13 1018.3 - 0.0
27/02:00pm 25.1 22.2 9.8 38 8.6 E 15 28 8 15 1018.8 - 0.0
27/01:30pm 24.5 20.6 9.6 39 8.3 ENE 20 30 11 16 1019.2 - 0.0
27/01:00pm 24.2 21.5 10.5 42 7.7 ESE 15 28 8 15 1019.5 - 0.0
27/12:30pm 23.0 19.6 10.4 45 7.1 ENE 19 28 10 15 1020.1 - 0.0
27/12:00pm 22.6 19.0 10.7 47 6.7 E 20 33 11 18 1020.6 1020.0 0.0
27/11:30am 21.8 18.4 11.2 51 6.0 E 20 30 11 16 1021.2 - 0.0
27/11:00am 21.4 17.8 11.7 54 5.5 E 22 35 12 19 1021.6 - 0.0
27/10:30am 20.0 15.4 11.2 57 4.9 E 26 33 14 18 1021.6 - 0.0
27/10:00am 18.7 14.5 11.0 61 4.3 E 24 32 13 17 1021.9 - 0.0
27/09:30am 17.2 12.5 10.6 65 3.6 E 26 33 14 18 1021.8 - 0.0
27/09:00am 16.6 12.7 10.7 68 3.2 E 22 32 12 17 1021.6 1020.9 0.0
27/08:30am 15.5 11.5 10.3 71 2.8 ESE 22 32 12 17 1021.2 - 0.0
27/08:00am 15.1 10.7 10.5 74 2.5 ESE 24 33 13 18 1020.6 - 0.0
27/07:30am 14.0 9.8 9.6 75 2.3 ESE 22 35 12 19 1020.3 - 0.0
27/07:00am 14.2 10.1 10.2 77 2.1 E 22 37 12 20 1020.0 - 0.0
27/06:30am 14.7 10.7 10.5 76 2.3 ESE 22 39 12 21 1019.7 - 0.0
27/06:00am 14.2 10.5 10.0 76 2.2 ESE 20 33 11 18 1019.4 1018.7 0.0
27/05:30am 14.6 10.9 10.2 75 2.4 SE 20 30 11 16 1019.1 - 0.0
27/05:00am 14.5 10.4 10.1 75 2.3 ESE 22 33 12 18 1018.6 - 0.0
27/04:30am 14.5 10.3 9.7 73 2.5 SE 22 35 12 19 1018.5 - 0.0
27/04:00am 15.3 10.8 10.1 71 2.8 ESE 24 33 13 18 1018.3 - 0.0
27/03:30am 15.0 10.4 9.8 71 2.8 SE 24 32 13 17 1018.3 - 0.0
27/03:00am 14.9 11.1 9.7 71 2.7 SE 20 35 11 19 1018.5 1017.9 0.0
27/02:30am 15.4 11.8 9.7 69 3.0 ESE 19 26 10 14 1018.8 - 0.0
27/02:00am 15.8 10.5 9.7 67 3.2 SE 28 37 15 20 1018.6 - 0.0
27/01:30am 16.2 12.5 9.6 65 3.5 ESE 19 28 10 15 1019.1 - 0.0
27/01:00am 16.9 11.9 9.6 62 3.9 ESE 26 43 14 23 1019.1 - 0.0
27/12:30am 17.1 13.1 9.0 59 4.3 ESE 20 30 11 16 1019.2 - 0.0
27/12:00am 17.7 13.3 8.8 56 4.7 ESE 22 32 12 17 1019.1 1018.4 0.0
 
Date/Time
CST
Temp
°C
App
Temp
°C
Dew
Point
Rel
Hum
%
Delta-T
°C
Wind Press
QNH
hPa
Press
MSL
hPa
Rain
since 9 am
mm
Dir
 
Spd
km/h
Gust
km/h
Spd
kts
Gust
kts
26/11:30pm 18.4 13.1 8.4 52 5.3 SE 26 35 14 19 1018.8 - 0.0
26/11:00pm 19.3 13.0 7.4 46 6.2 SE 30 41 16 22 1018.6 - 0.0
26/10:30pm 20.4 14.3 6.4 40 7.2 SE 28 43 15 23 1018.4 - 0.0

Other Formats:

Comma delimited format used in spreadsheet applications
http://www.bom.gov.au/fwo/IDD60801/IDD60801.94321.axf

JavaScript Object Notation format (JSON) in row-major order
http://www.bom.gov.au/fwo/IDD60801/IDD60801.94321.json